createdAt,value
2023-08-05T00:00:10.995Z,101535.63
2023-08-05T00:02:38.957Z,101532.31
2023-08-05T00:05:09.907Z,101529.09
2023-08-05T00:07:37.910Z,101516.69
2023-08-05T00:10:06.623Z,101527.94
2023-08-05T00:12:34.664Z,101531.50
2023-08-05T00:15:03.391Z,101528.75
2023-08-05T00:17:31.498Z,101525.22
2023-08-05T00:19:59.559Z,101529.03
2023-08-05T00:22:28.926Z,101523.44
2023-08-05T00:24:56.861Z,101524.53
2023-08-05T00:27:24.848Z,101523.13
2023-08-05T00:29:53.056Z,101519.22
2023-08-05T00:32:21.002Z,101519.81
2023-08-05T00:34:49.038Z,101523.66
2023-08-05T00:37:17.979Z,101513.47
2023-08-05T00:39:47.393Z,101509.00
2023-08-05T00:42:19.656Z,101507.31
2023-08-05T00:44:47.758Z,101511.50
2023-08-05T00:47:18.835Z,101508.88
2023-08-05T00:49:46.883Z,101504.16
2023-08-05T00:52:16.506Z,101510.22
2023-08-05T00:54:45.047Z,101511.94
2023-08-05T00:57:16.377Z,101518.47
2023-08-05T00:59:44.353Z,101517.78
2023-08-05T01:02:12.313Z,101516.72
2023-08-05T01:04:40.248Z,101512.06
2023-08-05T01:07:08.413Z,101512.59
2023-08-05T01:09:36.454Z,101519.41
2023-08-05T01:12:04.444Z,101516.25
2023-08-05T01:14:33.888Z,101519.78
2023-08-05T01:17:03.213Z,101522.25
2023-08-05T01:19:32.151Z,101530.94
2023-08-05T01:22:08.414Z,101532.63
2023-08-05T01:24:41.583Z,101526.50
2023-08-05T01:27:12.124Z,101538.31
2023-08-05T01:29:40.136Z,101529.03
2023-08-05T01:32:09.377Z,101530.69
2023-08-05T01:34:39.103Z,101536.31
2023-08-05T01:37:07.358Z,101532.41
2023-08-05T01:39:35.290Z,101526.78
2023-08-05T01:42:03.237Z,101529.16
2023-08-05T01:44:32.629Z,101536.31
2023-08-05T01:47:00.615Z,101544.03
2023-08-05T01:49:28.624Z,101547.59
2023-08-05T01:51:56.582Z,101545.13
2023-08-05T01:54:24.543Z,101536.22
2023-08-05T01:56:52.643Z,101523.75
2023-08-05T01:59:20.660Z,101526.84
2023-08-05T02:01:50.189Z,101532.25
2023-08-05T02:04:18.249Z,101527.22
2023-08-05T02:06:46.390Z,101532.44
2023-08-05T02:09:14.329Z,101530.41
2023-08-05T02:11:42.308Z,101529.97
2023-08-05T02:14:10.272Z,101532.31
2023-08-05T02:16:38.384Z,101531.44
2023-08-05T02:19:09.936Z,101524.78
2023-08-05T02:21:40.209Z,101520.28
2023-08-05T02:24:10.917Z,101528.53
2023-08-05T02:26:38.939Z,101521.81
2023-08-05T02:29:07.044Z,101520.13
2023-08-05T02:31:34.994Z,101527.97
2023-08-05T02:34:02.984Z,101524.72
2023-08-05T02:36:32.372Z,101522.16
2023-08-05T02:39:00.626Z,101524.72
2023-08-05T02:41:28.570Z,101526.72
2023-08-05T02:43:56.528Z,101536.19
2023-08-05T02:46:24.619Z,101530.22
2023-08-05T02:48:52.683Z,101530.84
2023-08-05T02:51:20.647Z,101529.81
2023-08-05T02:53:49.947Z,101530.03
2023-08-05T02:56:17.949Z,101523.41
2023-08-05T02:58:45.922Z,101522.88
2023-08-05T03:01:13.879Z,101523.00
2023-08-05T03:03:41.886Z,101524.38
2023-08-05T03:06:09.957Z,101523.41
2023-08-05T03:08:37.961Z,101527.84
2023-08-05T03:11:07.287Z,101525.59
2023-08-05T03:13:35.260Z,101525.69
2023-08-05T03:16:10.220Z,101520.50
2023-08-05T03:18:38.216Z,101529.94
2023-08-05T03:21:06.448Z,101531.44
2023-08-05T03:23:34.491Z,101527.91
2023-08-05T03:26:02.435Z,101524.66
2023-08-05T03:28:31.818Z,101521.88
2023-08-05T03:30:59.801Z,101524.97
2023-08-05T03:33:27.764Z,101517.13
2023-08-05T03:35:56.469Z,101515.69
2023-08-05T03:38:24.406Z,101513.94
2023-08-05T03:40:52.329Z,101517.06
2023-08-05T03:43:20.304Z,101511.78
2023-08-05T03:45:53.105Z,101514.13
2023-08-05T03:48:21.079Z,101511.91
2023-08-05T03:50:49.022Z,101503.38
2023-08-05T03:53:17.064Z,101502.22
2023-08-05T03:55:44.990Z,101498.09
2023-08-05T03:58:13.516Z,101489.41
2023-08-05T04:00:42.213Z,101487.16
2023-08-05T04:03:11.808Z,101482.22
2023-08-05T04:05:41.419Z,101482.06
2023-08-05T04:08:09.390Z,101484.84
2023-08-05T04:10:39.655Z,101478.56
2023-08-05T04:13:12.473Z,101483.06
2023-08-05T04:15:40.920Z,101473.13
2023-08-05T04:18:09.076Z,101474.63
2023-08-05T04:20:40.065Z,101474.44
2023-08-05T04:23:10.254Z,101460.63
2023-08-05T04:25:38.411Z,101463.31
2023-08-05T04:28:07.756Z,101464.31
2023-08-05T04:30:35.793Z,101457.78
2023-08-05T04:33:03.828Z,101457.38
2023-08-05T04:35:31.780Z,101445.47
2023-08-05T04:38:01.156Z,101446.66
2023-08-05T04:40:29.124Z,101446.97
2023-08-05T04:42:57.068Z,101442.75
2023-08-05T04:45:25.330Z,101438.63
2023-08-05T04:47:53.309Z,101436.72
2023-08-05T04:50:21.309Z,101436.06
2023-08-05T04:52:49.270Z,101449.22
2023-08-05T04:55:18.635Z,101440.44
2023-08-05T04:57:47.391Z,101438.56
2023-08-05T05:00:15.625Z,101448.09
2023-08-05T05:02:43.596Z,101447.03
2023-08-05T05:05:11.930Z,101449.84
2023-08-05T05:07:39.841Z,101442.59
2023-08-05T05:10:08.755Z,101448.88
2023-08-05T05:12:38.099Z,101456.25
2023-08-05T05:15:06.583Z,101448.13
2023-08-05T05:17:37.952Z,101451.25
2023-08-05T05:20:06.788Z,101453.94
2023-08-05T05:22:34.904Z,101452.63
2023-08-05T05:25:02.891Z,101459.09
2023-08-05T05:27:30.935Z,101459.94
2023-08-05T05:30:00.253Z,101452.66
2023-08-05T05:32:28.323Z,101465.59
2023-08-05T05:34:56.272Z,101465.56
2023-08-05T05:37:24.252Z,101456.22
2023-08-05T05:39:52.220Z,101455.69
2023-08-05T05:42:20.168Z,101458.81
2023-08-05T05:44:53.567Z,101458.88
2023-08-05T05:47:23.153Z,101471.00
2023-08-05T05:49:51.157Z,101467.09
2023-08-05T05:52:19.370Z,101475.00
2023-08-05T05:54:47.948Z,101476.50
2023-08-05T05:57:15.906Z,101471.94
2023-08-05T05:59:45.102Z,101483.28
2023-08-05T06:02:13.074Z,101481.72
2023-08-05T06:04:43.781Z,101481.50
2023-08-05T06:07:12.077Z,101488.59
2023-08-05T06:09:40.804Z,101487.34
2023-08-05T06:12:11.605Z,101493.56
2023-08-05T06:14:39.694Z,101477.25
2023-08-05T06:17:07.884Z,101473.88
2023-08-05T06:19:35.855Z,101470.47
2023-08-05T06:22:05.539Z,101473.88
2023-08-05T06:24:33.521Z,101475.56
2023-08-05T06:27:01.447Z,101472.34
2023-08-05T06:29:29.460Z,101478.13
2023-08-05T06:31:57.366Z,101479.38
2023-08-05T06:34:25.355Z,101489.47
2023-08-05T06:36:53.317Z,101494.06
2023-08-05T06:39:22.785Z,101491.00
2023-08-05T06:41:50.867Z,101491.94
2023-08-05T06:44:18.992Z,101489.97
2023-08-05T06:46:46.937Z,101486.00
2023-08-05T06:49:14.863Z,101490.69
2023-08-05T06:51:42.840Z,101496.63
2023-08-05T06:54:12.034Z,101485.44
2023-08-05T06:56:41.445Z,101485.47
2023-08-05T06:59:09.512Z,101497.31
2023-08-05T07:01:37.490Z,101496.03
2023-08-05T07:04:05.911Z,101489.34
2023-08-05T07:06:33.878Z,101496.75
2023-08-05T07:09:04.730Z,101483.56
2023-08-05T07:11:32.744Z,101483.88
2023-08-05T07:14:02.113Z,101479.38
2023-08-05T07:16:30.150Z,101475.50
2023-08-05T07:18:58.104Z,101473.25
2023-08-05T07:21:26.135Z,101472.16
2023-08-05T07:23:54.036Z,101470.97
2023-08-05T07:26:21.955Z,101478.91
2023-08-05T07:28:50.251Z,101479.53
2023-08-05T07:31:19.583Z,101472.75
2023-08-05T07:33:49.014Z,101467.69
2023-08-05T07:36:17.835Z,101465.09
2023-08-05T07:38:47.878Z,101464.78
2023-08-05T07:41:16.931Z,101461.94
2023-08-05T07:43:45.049Z,101461.38
2023-08-05T07:46:15.131Z,101459.06
2023-08-05T07:48:48.245Z,101455.22
2023-08-05T07:51:16.231Z,101450.72
2023-08-05T07:53:44.199Z,101437.19
2023-08-05T07:56:12.886Z,101446.44
2023-08-05T07:58:43.518Z,101444.13
2023-08-05T08:01:13.394Z,101426.88
2023-08-05T08:03:42.441Z,101430.31
2023-08-05T08:06:15.757Z,101429.19
2023-08-05T08:08:44.172Z,101424.09
2023-08-05T08:11:12.399Z,101418.72
2023-08-05T08:13:40.618Z,101425.81
2023-08-05T08:16:08.853Z,101421.00
2023-08-05T08:18:36.996Z,101417.81
2023-08-05T08:21:06.410Z,101423.00
2023-08-05T08:23:36.022Z,101423.00
2023-08-05T08:26:04.018Z,101425.50
2023-08-05T08:28:31.978Z,101421.88
2023-08-05T08:31:00.159Z,101417.28
2023-08-05T08:33:29.238Z,101410.00
2023-08-05T08:35:57.331Z,101410.88
2023-08-05T08:38:25.296Z,101410.22
2023-08-05T08:40:59.120Z,101406.69
2023-08-05T08:43:27.073Z,101406.78
2023-08-05T08:45:55.721Z,101398.91
2023-08-05T08:48:25.165Z,101395.31
2023-08-05T08:50:55.239Z,101406.50
2023-08-05T08:53:23.423Z,101398.66
2023-08-05T08:55:51.555Z,101401.22
2023-08-05T08:58:20.922Z,101415.03
2023-08-05T09:00:49.096Z,101416.66
2023-08-05T09:03:17.647Z,101407.44
2023-08-05T09:05:47.836Z,101404.78
2023-08-05T09:08:15.817Z,101401.78
2023-08-05T09:10:45.920Z,101401.66
2023-08-05T09:13:17.356Z,101400.75
2023-08-05T09:15:48.654Z,101403.31
2023-08-05T09:18:16.688Z,101393.81
2023-08-05T09:20:44.669Z,101394.66
2023-08-05T09:23:13.314Z,101403.00
2023-08-05T09:25:42.701Z,101402.63
2023-08-05T09:28:11.505Z,101397.25
2023-08-05T09:30:40.046Z,101398.72
2023-08-05T09:33:09.486Z,101393.34
2023-08-05T09:35:37.512Z,101394.41
2023-08-05T09:38:05.478Z,101392.03
2023-08-05T09:40:37.583Z,101388.69
2023-08-05T09:43:06.193Z,101391.88
2023-08-05T09:45:35.307Z,101386.72
2023-08-05T09:48:08.421Z,101385.91
2023-08-05T09:50:39.736Z,101373.72
2023-08-05T09:53:09.171Z,101381.06
2023-08-05T09:55:38.422Z,101372.97
2023-08-05T09:58:09.289Z,101377.38
2023-08-05T10:00:38.473Z,101369.91
2023-08-05T10:03:09.388Z,101363.03
2023-08-05T10:05:42.746Z,101357.88
2023-08-05T10:08:10.673Z,101351.63
2023-08-05T10:10:39.724Z,101353.34
2023-08-05T10:13:10.986Z,101352.69
2023-08-05T10:15:41.364Z,101340.81
2023-08-05T10:18:09.896Z,101340.34
2023-08-05T10:20:39.744Z,101339.66
2023-08-05T10:23:09.584Z,101340.28
2023-08-05T10:25:41.739Z,101327.56
2023-08-05T10:28:10.229Z,101319.13
2023-08-05T10:30:43.458Z,101320.13
2023-08-05T10:33:11.714Z,101315.34
2023-08-05T10:35:41.862Z,101319.66
2023-08-05T10:38:16.920Z,101307.59
2023-08-05T10:40:49.810Z,101295.97
2023-08-05T10:43:29.437Z,101296.41
2023-08-05T10:46:00.342Z,101303.09
2023-08-05T10:48:32.910Z,101301.63
2023-08-05T10:51:06.097Z,101299.00
2023-08-05T10:53:34.544Z,101295.69
2023-08-05T10:56:03.255Z,101286.53
2023-08-05T10:58:32.945Z,101286.28
2023-08-05T11:01:02.756Z,101280.97
2023-08-05T11:03:36.060Z,101287.41
2023-08-05T11:06:08.024Z,101278.84
2023-08-05T11:08:38.023Z,101273.25
2023-08-05T11:11:07.294Z,101265.13
2023-08-05T11:13:35.576Z,101262.56
2023-08-05T11:16:08.867Z,101252.06
2023-08-05T11:18:37.800Z,101245.16
2023-08-05T11:21:08.728Z,101246.97
2023-08-05T11:23:38.238Z,101243.97
2023-08-05T11:26:06.751Z,101246.56
2023-08-05T11:28:35.482Z,101246.03
2023-08-05T11:31:04.016Z,101244.81
2023-08-05T11:33:32.075Z,101247.72
2023-08-05T11:36:00.554Z,101248.72
2023-08-05T11:38:30.848Z,101257.31
2023-08-05T11:40:59.360Z,101252.72
2023-08-05T11:43:27.699Z,101249.19
2023-08-05T11:45:57.265Z,101246.63
2023-08-05T11:48:26.157Z,101244.38
2023-08-05T11:50:59.175Z,101244.19
2023-08-05T11:53:27.281Z,101235.59
2023-08-05T11:55:56.907Z,101239.97
2023-08-05T11:58:28.190Z,101231.94
2023-08-05T12:01:01.479Z,101231.53
2023-08-05T12:03:33.120Z,101237.00
2023-08-05T12:06:02.997Z,101241.25
2023-08-05T12:08:43.323Z,101229.66
2023-08-05T12:11:13.864Z,101242.16
2023-08-05T12:13:41.859Z,101230.38
2023-08-05T12:16:17.291Z,101236.50
2023-08-05T12:18:45.597Z,101225.94
2023-08-05T12:21:13.546Z,101220.34
2023-08-05T12:23:42.363Z,101228.69
2023-08-05T12:26:10.407Z,101225.81
2023-08-05T12:28:39.771Z,101222.78
2023-08-05T12:31:08.564Z,101219.00
2023-08-05T12:33:36.540Z,101204.78
2023-08-05T12:36:04.585Z,101207.50
2023-08-05T12:38:32.573Z,101207.84
2023-08-05T12:41:00.562Z,101195.50
2023-08-05T12:43:28.486Z,101191.47
2023-08-05T12:45:57.896Z,101181.13
2023-08-05T12:48:27.998Z,101189.34
2023-08-05T12:50:55.981Z,101185.28
2023-08-05T12:53:24.040Z,101175.25
2023-08-05T12:55:52.236Z,101187.31
2023-08-05T12:58:20.391Z,101168.88
2023-08-05T13:00:48.596Z,101160.75
2023-08-05T13:03:17.962Z,101166.09
2023-08-05T13:05:45.974Z,101156.31
2023-08-05T13:08:13.943Z,101155.91
2023-08-05T13:10:43.674Z,101156.88
2023-08-05T13:13:11.763Z,101140.31
2023-08-05T13:15:39.727Z,101149.09
2023-08-05T13:18:07.739Z,101143.28
2023-08-05T13:20:37.162Z,101132.19
2023-08-05T13:23:05.121Z,101126.63
2023-08-05T13:25:33.277Z,101133.63
2023-08-05T13:28:01.269Z,101127.66
2023-08-05T13:30:29.220Z,101117.38
2023-08-05T13:32:57.225Z,101132.19
2023-08-05T13:35:25.300Z,101123.09
2023-08-05T13:37:54.668Z,101119.72
2023-08-05T13:40:22.790Z,101116.19
2023-08-05T13:42:50.795Z,101109.69
2023-08-05T13:45:18.854Z,101109.56
2023-08-05T13:47:47.046Z,101106.84
2023-08-05T13:50:17.811Z,101107.88
2023-08-05T13:52:45.803Z,101110.22
2023-08-05T13:55:15.361Z,101108.22
2023-08-05T13:57:43.361Z,101097.34
2023-08-05T14:00:12.354Z,101101.75
2023-08-05T14:02:40.783Z,101096.72
2023-08-05T14:05:09.546Z,101094.00
2023-08-05T14:07:37.497Z,101087.63
2023-08-05T14:10:06.077Z,101081.59
2023-08-05T14:12:35.413Z,101085.72
2023-08-05T14:15:03.348Z,101079.72
2023-08-05T14:17:31.363Z,101069.38
2023-08-05T14:19:59.363Z,101061.28
2023-08-05T14:22:27.351Z,101064.66
2023-08-05T14:24:55.362Z,101052.47
2023-08-05T14:27:23.312Z,101050.78
2023-08-05T14:29:57.765Z,101048.06
2023-08-05T14:32:33.748Z,101041.25
2023-08-05T14:35:07.513Z,101049.34
2023-08-05T14:37:36.500Z,101046.88
2023-08-05T14:40:04.895Z,101038.63
2023-08-05T14:42:32.872Z,101038.44
2023-08-05T14:45:02.410Z,101030.75
2023-08-05T14:47:33.238Z,101022.00
2023-08-05T14:50:01.227Z,101035.34
2023-08-05T14:52:29.137Z,101026.81
2023-08-05T14:54:57.083Z,101023.00
2023-08-05T14:57:25.041Z,101013.63
2023-08-05T14:59:55.126Z,101006.25
2023-08-05T15:02:24.610Z,100997.09
2023-08-05T15:04:52.734Z,100998.31
2023-08-05T15:07:20.673Z,100994.91
2023-08-05T15:09:48.617Z,101001.38
2023-08-05T15:12:16.670Z,100986.81
2023-08-05T15:14:44.639Z,100990.41
2023-08-05T15:17:12.561Z,100977.81
2023-08-05T15:19:41.964Z,100969.06
2023-08-05T15:22:11.290Z,100969.28
2023-08-05T15:24:39.323Z,100973.56
2023-08-05T15:27:07.958Z,100962.13
2023-08-05T15:29:35.948Z,100959.97
2023-08-05T15:32:03.971Z,100953.88
2023-08-05T15:34:32.255Z,100954.72
2023-08-05T15:37:02.082Z,100950.59
2023-08-05T15:39:31.576Z,100942.53
2023-08-05T15:41:59.759Z,100943.94
2023-08-05T15:44:27.839Z,100950.84
2023-08-05T15:46:55.777Z,100946.13
2023-08-05T15:49:23.831Z,100941.19
2023-08-05T15:51:51.876Z,100943.13
2023-08-05T15:54:21.381Z,100944.97
2023-08-05T15:56:49.455Z,100939.84
2023-08-05T15:59:17.387Z,100938.72
2023-08-05T16:01:45.417Z,100943.28
2023-08-05T16:04:13.484Z,100943.81
2023-08-05T16:06:42.663Z,100943.28
2023-08-05T16:09:10.628Z,100949.91
2023-08-05T16:11:39.970Z,100942.63
2023-08-05T16:14:07.915Z,100935.13
2023-08-05T16:16:35.895Z,100940.03
2023-08-05T16:19:03.814Z,100935.94
2023-08-05T16:21:32.705Z,100933.41
2023-08-05T16:24:02.463Z,100942.00
2023-08-05T16:26:30.870Z,100933.22
2023-08-05T16:29:00.189Z,100919.47
2023-08-05T16:31:29.312Z,100922.56
2023-08-05T16:33:57.323Z,100926.13
2023-08-05T16:36:25.252Z,100909.22
2023-08-05T16:38:53.205Z,100920.72
2023-08-05T16:41:21.193Z,100922.88
2023-08-05T16:43:49.649Z,100917.28
2023-08-05T16:46:19.144Z,100928.84
2023-08-05T16:48:47.415Z,100928.19
2023-08-05T16:51:15.366Z,100919.66
2023-08-05T16:53:43.342Z,100906.56
2023-08-05T16:56:11.836Z,100911.72
2023-08-05T16:58:39.781Z,100914.59
2023-08-05T17:01:07.762Z,100912.69
2023-08-05T17:03:37.121Z,100914.13
2023-08-05T17:06:05.257Z,100910.06
2023-08-05T17:08:33.173Z,100902.44
2023-08-05T17:11:05.111Z,100895.47
2023-08-05T17:13:34.545Z,100895.78
2023-08-05T17:16:03.345Z,100898.50
2023-08-05T17:18:31.309Z,100889.88
2023-08-05T17:21:00.645Z,100887.41
2023-08-05T17:23:28.633Z,100886.75
2023-08-05T17:25:59.168Z,100883.44
2023-08-05T17:28:27.191Z,100874.44
2023-08-05T17:30:55.202Z,100877.03
2023-08-05T17:33:23.219Z,100863.47
2023-08-05T17:35:53.556Z,100862.13
2023-08-05T17:38:25.188Z,100855.06
2023-08-05T17:40:54.477Z,100859.44
2023-08-05T17:43:22.450Z,100855.09
2023-08-05T17:45:58.143Z,100858.47
2023-08-05T17:48:26.380Z,100853.97
2023-08-05T17:50:58.168Z,100859.47
2023-08-05T17:53:27.699Z,100851.94
2023-08-05T17:55:55.645Z,100855.50
2023-08-05T17:58:23.637Z,100841.06
2023-08-05T18:00:51.741Z,100834.69
2023-08-05T18:03:19.861Z,100837.31
2023-08-05T18:05:47.821Z,100840.03
2023-08-05T18:08:15.756Z,100835.00
2023-08-05T18:10:45.096Z,100833.22
2023-08-05T18:13:13.031Z,100828.78
2023-08-05T18:15:41.004Z,100827.78
2023-08-05T18:18:09.017Z,100831.66
2023-08-05T18:20:37.625Z,100833.63
2023-08-05T18:23:05.544Z,100832.97
2023-08-05T18:25:33.529Z,100836.69
2023-08-05T18:28:04.336Z,100837.88
2023-08-05T18:30:32.414Z,100840.09
2023-08-05T18:33:01.361Z,100837.88
2023-08-05T18:35:29.443Z,100838.56
2023-08-05T18:37:59.028Z,100844.84
2023-08-05T18:40:27.119Z,100844.88
2023-08-05T18:42:55.072Z,100850.00
2023-08-05T18:45:24.671Z,100844.69
2023-08-05T18:47:52.676Z,100842.72
2023-08-05T18:50:20.604Z,100837.28
2023-08-05T18:52:48.559Z,100843.94
2023-08-05T18:55:16.730Z,100843.63
2023-08-05T18:57:44.664Z,100837.56
2023-08-05T19:00:13.165Z,100839.72
2023-08-05T19:02:42.572Z,100840.13
2023-08-05T19:05:10.998Z,100834.63
2023-08-05T19:07:39.643Z,100832.03
2023-08-05T19:10:08.053Z,100837.09
2023-08-05T19:12:36.024Z,100835.94
2023-08-05T19:15:12.457Z,100832.06
2023-08-05T19:17:40.487Z,100822.50
2023-08-05T19:20:11.197Z,100827.03
2023-08-05T19:22:39.179Z,100826.63
2023-08-05T19:25:07.610Z,100825.88
2023-08-05T19:27:55.410Z,100824.31
2023-08-05T19:30:24.185Z,100829.72
2023-08-05T19:32:55.663Z,100823.00
2023-08-05T19:35:27.380Z,100819.78
2023-08-05T19:37:55.377Z,100812.28
2023-08-05T19:40:23.358Z,100821.53
2023-08-05T19:42:51.314Z,100816.38
2023-08-05T19:45:22.001Z,100813.53
2023-08-05T19:47:50.016Z,100815.25
2023-08-05T19:50:18.044Z,100824.59
2023-08-05T19:52:47.604Z,100824.66
2023-08-05T19:55:15.610Z,100817.88
2023-08-05T19:57:43.580Z,100819.06
2023-08-05T20:00:12.504Z,100828.56
2023-08-05T20:02:40.642Z,100830.13
2023-08-05T20:05:09.581Z,100826.66
2023-08-05T20:07:46.933Z,100838.78
2023-08-05T20:10:16.348Z,100866.63
2023-08-05T20:12:44.316Z,100877.09
2023-08-05T20:15:12.296Z,100861.94
2023-08-05T20:17:40.215Z,100859.03
2023-08-05T20:20:09.525Z,100885.53
2023-08-05T20:22:37.454Z,100895.44
2023-08-05T20:25:06.064Z,100888.84
2023-08-05T20:27:35.381Z,100895.63
2023-08-05T20:30:03.775Z,100905.84
2023-08-05T20:32:31.764Z,100913.69
2023-08-05T20:35:00.170Z,100926.16
2023-08-05T20:37:28.183Z,100919.16
2023-08-05T20:39:56.342Z,100909.13
2023-08-05T20:42:24.384Z,100895.63
2023-08-05T20:44:53.710Z,100899.44
2023-08-05T20:47:22.448Z,100894.06
2023-08-05T20:49:52.093Z,100888.41
2023-08-05T20:52:20.099Z,100885.53
2023-08-05T20:54:48.074Z,100892.25
2023-08-05T20:57:16.023Z,100892.63
2023-08-05T20:59:44.021Z,100884.25
2023-08-05T21:02:13.427Z,100889.78
2023-08-05T21:04:41.392Z,100879.88
2023-08-05T21:07:09.417Z,100889.56
2023-08-05T21:09:37.492Z,100882.56
2023-08-05T21:12:13.825Z,100882.44
2023-08-05T21:14:44.344Z,100882.94
2023-08-05T21:17:13.759Z,100866.03
2023-08-05T21:19:41.753Z,100874.50
2023-08-05T21:22:09.841Z,100885.44
2023-08-05T21:24:37.860Z,100892.09
2023-08-05T21:27:06.551Z,100886.50
2023-08-05T21:29:36.834Z,100882.31
2023-08-05T21:32:06.161Z,100884.69
2023-08-05T21:34:35.679Z,100887.22
2023-08-05T21:37:03.823Z,100883.22
2023-08-05T21:39:31.807Z,100889.19
2023-08-05T21:42:29.107Z,100893.38
2023-08-05T21:44:57.057Z,100891.59
2023-08-05T21:47:24.987Z,100891.66
2023-08-05T21:49:54.409Z,100902.13
2023-08-05T21:52:22.431Z,100891.09
2023-08-05T21:54:50.431Z,100886.56
2023-08-05T21:57:18.377Z,100878.03
2023-08-05T21:59:46.531Z,100868.59
2023-08-05T22:02:14.498Z,100869.69
2023-08-05T22:04:44.667Z,100867.47
2023-08-05T22:07:13.995Z,100859.00
2023-08-05T22:09:41.978Z,100854.31
2023-08-05T22:12:10.498Z,100859.53
2023-08-05T22:14:39.054Z,100863.84
2023-08-05T22:17:07.774Z,100871.06
2023-08-05T22:19:35.702Z,100871.81
2023-08-05T22:22:03.692Z,100863.91
2023-08-05T22:24:41.312Z,100853.78
2023-08-05T22:27:10.635Z,100858.16
2023-08-05T22:29:38.662Z,100843.63
2023-08-05T22:32:07.697Z,100843.84
2023-08-05T22:34:35.884Z,100841.22
2023-08-05T22:37:04.249Z,100842.63
2023-08-05T22:39:33.598Z,100831.59
2023-08-05T22:42:01.673Z,100835.41
2023-08-05T22:44:29.629Z,100825.97
2023-08-05T22:46:57.552Z,100822.56
2023-08-05T22:49:25.506Z,100818.63
2023-08-05T22:51:53.632Z,100811.25
2023-08-05T22:54:21.902Z,100805.88
2023-08-05T22:56:51.250Z,100800.84
2023-08-05T22:59:19.211Z,100806.38
2023-08-05T23:01:47.160Z,100797.59
2023-08-05T23:04:15.122Z,100795.84
2023-08-05T23:06:43.080Z,100797.22
2023-08-05T23:09:11.048Z,100798.91
2023-08-05T23:11:39.006Z,100793.75
2023-08-05T23:14:08.663Z,100798.78
2023-08-05T23:16:36.637Z,100783.69
2023-08-05T23:19:04.632Z,100784.66
2023-08-05T23:21:32.551Z,100770.84
2023-08-05T23:24:00.531Z,100768.31
2023-08-05T23:26:28.496Z,100766.28
2023-08-05T23:28:59.264Z,100764.72
2023-08-05T23:31:28.757Z,100757.13
2023-08-05T23:33:56.693Z,100751.22
2023-08-05T23:36:24.654Z,100750.38
2023-08-05T23:38:52.639Z,100745.09
2023-08-05T23:41:20.824Z,100740.53
2023-08-05T23:43:48.774Z,100735.59
2023-08-05T23:46:16.795Z,100737.25
2023-08-05T23:48:46.227Z,100734.44
2023-08-05T23:51:14.349Z,100743.22
2023-08-05T23:53:42.331Z,100745.53
2023-08-05T23:56:10.287Z,100736.25
2023-08-05T23:58:38.592Z,100736.09
